Time;durP1;ratioP1;P1;durP2;ratioP2;P2;SDS_P1;SDS_P2;PMS_P1;PMS_P2;Temp;Humidity;BMP_temperature;BMP_pressure;BME280_temperature;BME280_humidity;BME280_pressure;Samples;Min_cycle;Max_cycle;Signal;HPM_P1;HPM_P2
2023/08/05 00:00:43;;;;;;;4.35;3.95;;;18.20;87.40;;;;;;4986114;28;20105;-95
2023/08/05 00:03:09;;;;;;;8.45;4.38;;;18.20;87.30;;;;;;4966069;28;20081;-95
2023/08/05 00:05:37;;;;;;;7.28;4.88;;;18.20;87.20;;;;;;4965195;28;20064;-94
2023/08/05 00:08:04;;;;;;;6.15;4.15;;;18.20;87.20;;;;;;4964669;28;20046;-95
2023/08/05 00:10:30;;;;;;;6.13;3.78;;;18.20;87.10;;;;;;4963739;28;20042;-95
2023/08/05 00:13:21;;;;;;;5.03;3.65;;;18.20;87.10;;;;;;4964270;28;20133;-94
2023/08/05 00:15:55;;;;;;;7.45;4.30;;;18.10;87.10;;;;;;4964073;28;20042;-94
2023/08/05 00:18:21;;;;;;;6.78;3.97;;;18.20;87.00;;;;;;4964026;28;20047;-94
2023/08/05 00:20:50;;;;;;;7.95;4.80;;;18.30;86.80;;;;;;4964391;28;20050;-93
2023/08/05 00:23:27;;;;;;;7.95;4.40;;;18.30;86.80;;;;;;4964406;28;20088;-95
2023/08/05 00:25:53;;;;;;;7.72;4.68;;;18.10;86.80;;;;;;4964268;28;20145;-94
2023/08/05 00:28:19;;;;;;;5.85;4.20;;;18.30;86.60;;;;;;4964014;28;20081;-94
2023/08/05 00:30:44;;;;;;;7.22;4.32;;;18.20;86.60;;;;;;4963902;28;20061;-94
2023/08/05 00:33:10;;;;;;;7.05;4.20;;;18.20;86.60;;;;;;4963720;28;20108;-95
2023/08/05 00:35:36;;;;;;;4.97;3.90;;;18.20;86.60;;;;;;4963824;28;20058;-95
2023/08/05 00:38:01;;;;;;;8.40;4.68;;;18.20;86.60;;;;;;4964071;28;20380;-95
2023/08/05 00:40:27;;;;;;;7.57;4.63;;;18.20;86.60;;;;;;4964223;28;20049;-94
2023/08/05 00:42:53;;;;;;;7.85;4.20;;;18.10;86.60;;;;;;4964857;28;20455;-95
2023/08/05 00:45:20;;;;;;;8.07;4.38;;;18.10;86.70;;;;;;4964006;28;20519;-95
2023/08/05 00:47:46;;;;;;;8.25;3.97;;;18.00;86.70;;;;;;4963646;28;20531;-95
2023/08/05 00:50:13;;;;;;;6.95;3.67;;;18.00;86.80;;;;;;4963421;28;20133;-94
2023/08/05 00:52:41;;;;;;;10.38;4.18;;;18.00;86.80;;;;;;4963872;28;20129;-94
2023/08/05 00:55:07;;;;;;;10.40;3.90;;;18.00;86.80;;;;;;4963307;28;20052;-94
2023/08/05 00:57:34;;;;;;;5.00;4.32;;;18.00;86.80;;;;;;4963497;28;20136;-94
2023/08/05 01:00:21;;;;;;;10.10;4.65;;;18.10;86.80;;;;;;4963287;28;20039;-94
2023/08/05 01:02:47;;;;;;;5.88;4.00;;;18.00;86.90;;;;;;4962763;28;20377;-94
2023/08/05 01:05:35;;;;;;;6.75;4.00;;;18.10;86.50;;;;;;4963543;28;20077;-94
2023/08/05 01:08:27;;;;;;;5.18;3.80;;;18.00;86.90;;;;;;4962853;28;20056;-94
2023/08/05 01:10:53;;;;;;;12.25;4.10;;;18.00;86.90;;;;;;4963092;28;20507;-94
2023/08/05 01:13:34;;;;;;;6.97;3.92;;;18.00;86.90;;;;;;4963035;28;20400;-94
2023/08/05 01:16:07;;;;;;;5.82;3.75;;;17.90;87.30;;;;;;4963369;28;20520;-94
2023/08/05 01:18:35;;;;;;;6.45;4.82;;;18.00;87.30;;;;;;4962979;28;20192;-94
2023/08/05 01:21:07;;;;;;;8.55;4.40;;;18.00;87.30;;;;;;4962732;28;20112;-94
2023/08/05 01:23:46;;;;;;;11.43;5.03;;;18.00;87.50;;;;;;4962805;28;20105;-94
2023/08/05 01:26:12;;;;;;;8.10;4.03;;;18.00;87.50;;;;;;4962650;28;20077;-93
2023/08/05 01:28:38;;;;;;;8.50;4.40;;;18.10;87.50;;;;;;4962991;28;20074;-94
2023/08/05 01:31:06;;;;;;;9.38;4.53;;;18.10;87.50;;;;;;4962183;28;20570;-95
2023/08/05 01:33:33;;;;;;;7.80;4.50;;;18.10;87.60;;;;;;4962549;28;20160;-93
2023/08/05 01:36:33;;;;;;;5.20;3.95;;;18.10;87.70;;;;;;4962607;28;20049;-94
2023/08/05 01:38:58;;;;;;;6.93;4.45;;;18.10;88.10;;;;;;4920574;28;20103;-94
2023/08/05 01:41:24;;;;;;;10.45;4.65;;;18.20;87.70;;;;;;4962731;28;20129;-94
2023/08/05 01:44:32;;;;;;;7.28;4.30;;;18.10;87.70;;;;;;4962306;28;20615;-95
2023/08/05 01:46:58;;;;;;;9.95;4.65;;;18.00;87.90;;;;;;4978748;28;20058;-95
2023/08/05 01:49:24;;;;;;;8.80;4.55;;;18.20;87.80;;;;;;4961894;28;20561;-94
2023/08/05 01:51:49;;;;;;;8.82;4.82;;;18.20;88.00;;;;;;4962681;28;20483;-93
2023/08/05 01:54:16;;;;;;;9.13;4.55;;;18.10;88.00;;;;;;4960870;28;20053;-94
2023/08/05 01:57:17;;;;;;;7.38;5.15;;;18.20;88.00;;;;;;4961939;28;20488;-95
2023/08/05 01:59:42;;;;;;;8.88;4.80;;;18.10;88.20;;;;;;4962000;28;20046;-94
2023/08/05 02:02:08;;;;;;;8.45;5.18;;;18.20;87.70;;;;;;4962253;28;20053;-94
2023/08/05 02:04:34;;;;;;;6.75;4.95;;;18.20;87.80;;;;;;4962029;28;20046;-94
2023/08/05 02:07:03;;;;;;;9.02;4.88;;;18.30;87.90;;;;;;4962540;28;20125;-95
2023/08/05 02:09:30;;;;;;;7.95;4.53;;;18.20;88.40;;;;;;4962572;28;20042;-95
2023/08/05 02:11:58;;;;;;;7.32;4.38;;;18.30;87.90;;;;;;4962436;28;20053;-94
2023/08/05 02:14:24;;;;;;;6.60;4.55;;;18.30;88.00;;;;;;4962124;28;20041;-94
2023/08/05 02:16:49;;;;;;;7.20;5.03;;;18.40;88.10;;;;;;4961838;28;20042;-95
2023/08/05 02:19:15;;;;;;;9.90;4.47;;;18.40;88.10;;;;;;4961619;28;20096;-95
2023/08/05 02:21:42;;;;;;;9.80;5.25;;;18.40;88.00;;;;;;4962311;28;20510;-95
2023/08/05 02:24:09;;;;;;;9.02;4.80;;;18.40;88.10;;;;;;4961701;28;20050;-96
2023/08/05 02:26:36;;;;;;;10.20;4.90;;;18.40;88.00;;;;;;4962282;28;20050;-95
2023/08/05 02:29:04;;;;;;;9.35;4.95;;;18.30;88.10;;;;;;4961756;28;20081;-94
2023/08/05 02:31:29;;;;;;;7.13;4.85;;;18.30;88.20;;;;;;4961830;28;20057;-94
2023/08/05 02:33:55;;;;;;;8.45;5.32;;;18.20;88.20;;;;;;4962070;28;20132;-95
2023/08/05 02:36:21;;;;;;;10.60;4.82;;;18.20;88.20;;;;;;4962013;28;20054;-94
2023/08/05 02:39:03;;;;;;;6.57;4.65;;;18.20;88.20;;;;;;4962807;28;20042;-94
2023/08/05 02:41:30;;;;;;;7.78;4.82;;;18.00;88.40;;;;;;4961978;28;20100;-94
2023/08/05 02:43:55;;;;;;;9.38;5.30;;;18.10;88.20;;;;;;4961610;28;20104;-94
2023/08/05 02:46:21;;;;;;;7.15;5.32;;;18.10;88.20;;;;;;4961646;28;20050;-94
2023/08/05 02:48:57;;;;;;;11.15;4.95;;;18.10;88.30;;;;;;4961958;28;20133;-94
2023/08/05 02:51:23;;;;;;;7.40;4.68;;;18.00;88.50;;;;;;4961883;28;20093;-95
2023/08/05 02:53:50;;;;;;;7.30;5.25;;;18.20;88.30;;;;;;4961811;28;20043;-96
2023/08/05 02:56:16;;;;;;;6.82;4.63;;;18.10;88.40;;;;;;4962479;28;20086;-94
2023/08/05 02:58:43;;;;;;;7.38;5.13;;;18.20;88.90;;;;;;4966999;28;20043;-96
2023/08/05 03:01:09;;;;;;;7.03;4.45;;;18.20;88.20;;;;;;4970830;28;20042;-95
2023/08/05 03:03:46;;;;;;;9.13;5.20;;;18.00;88.00;;;;;;4967950;28;20054;-96
2023/08/05 03:06:17;;;;;;;9.00;4.90;;;17.90;88.20;;;;;;4969253;28;20053;-95
2023/08/05 03:08:43;;;;;;;10.00;5.05;;;17.80;88.20;;;;;;4970933;28;20057;-96
2023/08/05 03:11:09;;;;;;;8.82;5.18;;;17.80;88.20;;;;;;4971630;28;20038;-96
2023/08/05 03:13:34;;;;;;;7.50;5.20;;;17.70;88.30;;;;;;4969363;28;20093;-96
2023/08/05 03:16:15;;;;;;;8.25;4.90;;;17.60;88.40;;;;;;4972481;28;20042;-96
2023/08/05 03:18:40;;;;;;;10.40;4.82;;;17.40;88.60;;;;;;4973710;28;20046;-95
2023/08/05 03:21:12;;;;;;;9.07;5.03;;;17.50;88.50;;;;;;5039434;23;20041;-96
2023/08/05 03:23:38;;;;;;;6.50;5.15;;;17.50;88.60;;;;;;5174447;22;20041;-96
2023/08/05 03:26:11;;;;;;;8.52;5.32;;;17.40;88.60;;;;;;5047101;28;20665;-96
2023/08/05 03:28:37;;;;;;;8.48;5.68;;;17.40;88.70;;;;;;5050451;28;20045;-95
2023/08/05 03:31:03;;;;;;;7.30;5.40;;;17.30;88.60;;;;;;5050946;28;20067;-95
2023/08/05 03:33:29;;;;;;;7.85;5.80;;;17.30;88.70;;;;;;5049116;28;20052;-96
2023/08/05 03:35:57;;;;;;;7.70;5.70;;;17.20;88.80;;;;;;5051550;28;20037;-96
2023/08/05 03:38:22;;;;;;;9.90;5.70;;;17.20;88.80;;;;;;5051754;28;20059;-95
2023/08/05 03:40:48;;;;;;;8.25;5.13;;;17.20;88.80;;;;;;5051179;28;20037;-96
2023/08/05 03:43:14;;;;;;;8.25;5.53;;;17.20;88.80;;;;;;5051376;28;20037;-96
2023/08/05 03:45:40;;;;;;;13.55;5.70;;;17.10;88.80;;;;;;5047025;28;20052;-96
2023/08/05 03:48:06;;;;;;;10.32;5.85;;;17.10;88.80;;;;;;5043018;28;20077;-95
2023/08/05 03:50:31;;;;;;;11.13;5.70;;;17.20;88.80;;;;;;5061853;28;20041;-96
2023/08/05 03:53:13;;;;;;;8.93;5.57;;;17.20;88.80;;;;;;5061760;28;20041;-96
2023/08/05 03:55:39;;;;;;;9.43;4.80;;;17.10;88.90;;;;;;5079513;28;20507;-96
2023/08/05 03:58:07;;;;;;;10.50;5.18;;;17.20;88.60;;;;;;5061627;28;20040;-95
2023/08/05 04:00:42;;;;;;;10.75;5.28;;;17.20;88.60;;;;;;5060143;28;20044;-95
2023/08/05 04:03:08;;;;;;;8.80;4.88;;;17.10;88.70;;;;;;5059398;28;20049;-94
2023/08/05 04:05:33;;;;;;;8.70;5.10;;;17.20;88.50;;;;;;5060368;28;20047;-96
2023/08/05 04:07:59;;;;;;;8.40;4.90;;;17.20;88.40;;;;;;5060717;28;20085;-96
2023/08/05 04:10:25;;;;;;;7.75;5.07;;;17.20;88.40;;;;;;5059864;28;20055;-95
2023/08/05 04:12:50;;;;;;;10.32;4.90;;;17.30;88.40;;;;;;5060062;28;20036;-96
2023/08/05 04:15:27;;;;;;;8.38;5.03;;;17.30;88.30;;;;;;5059201;28;20049;-95
2023/08/05 04:17:59;;;;;;;6.97;4.80;;;17.20;88.40;;;;;;5060099;28;20041;-96
2023/08/05 04:20:27;;;;;;;6.75;4.72;;;17.30;88.30;;;;;;5060819;28;20052;-94
2023/08/05 04:22:53;;;;;;;6.15;4.07;;;17.40;88.20;;;;;;5067651;28;20389;-96
2023/08/05 04:25:19;;;;;;;7.93;4.65;;;17.40;88.10;;;;;;5068063;28;20052;-95
2023/08/05 04:27:51;;;;;;;6.22;4.60;;;17.40;88.00;;;;;;5063621;28;20727;-95
2023/08/05 04:30:37;;;;;;;7.30;4.22;;;17.30;88.00;;;;;;5079530;28;20086;-96
2023/08/05 04:33:04;;;;;;;6.78;4.45;;;17.30;88.10;;;;;;5062749;28;20189;-94
2023/08/05 04:35:29;;;;;;;8.02;4.20;;;17.50;88.00;;;;;;5061956;28;20040;-95
2023/08/05 04:37:55;;;;;;;6.97;4.50;;;17.60;87.90;;;;;;5062140;28;20067;-95
2023/08/05 04:40:21;;;;;;;8.60;4.40;;;17.70;87.90;;;;;;5061597;28;20062;-94
2023/08/05 04:42:49;;;;;;;8.30;4.32;;;17.70;87.90;;;;;;5061848;28;20044;-96
2023/08/05 04:45:15;;;;;;;6.38;4.30;;;17.80;88.00;;;;;;5061938;28;20036;-95
2023/08/05 04:47:47;;;;;;;8.27;4.47;;;17.90;88.10;;;;;;5062353;28;20040;-95
2023/08/05 04:50:13;;;;;;;7.10;4.28;;;17.80;88.20;;;;;;5061944;28;20040;-95
2023/08/05 04:52:39;;;;;;;6.68;4.32;;;18.00;88.20;;;;;;5062036;28;20032;-95
2023/08/05 04:55:29;;;;;;;6.47;4.28;;;18.00;88.40;;;;;;5062508;28;20444;-95
2023/08/05 04:58:00;;;;;;;6.68;4.10;;;17.90;88.40;;;;;;5062654;28;20103;-95
2023/08/05 05:00:26;;;;;;;6.65;3.97;;;18.00;88.90;;;;;;5061870;28;20140;-95
2023/08/05 05:02:52;;;;;;;9.30;5.20;;;18.00;88.50;;;;;;5062291;28;20083;-94
2023/08/05 05:05:18;;;;;;;5.90;4.20;;;18.10;88.60;;;;;;5061524;28;20075;-95
2023/08/05 05:07:43;;;;;;;10.63;5.05;;;18.10;88.40;;;;;;5061393;28;20036;-96
2023/08/05 05:10:09;;;;;;;5.63;4.40;;;18.20;88.10;;;;;;5061737;28;20113;-95
2023/08/05 05:12:35;;;;;;;8.50;4.45;;;18.20;87.90;;;;;;5061856;28;20086;-95
2023/08/05 05:15:24;;;;;;;6.78;4.40;;;18.30;87.90;;;;;;5061428;28;20040;-95
2023/08/05 05:18:06;;;;;;;7.30;4.72;;;18.20;87.90;;;;;;5061230;28;20044;-95
2023/08/05 05:20:33;;;;;;;7.10;4.38;;;18.20;87.70;;;;;;5061047;28;20040;-94
2023/08/05 05:22:59;;;;;;;7.18;3.70;;;18.30;87.60;;;;;;5061304;28;20052;-96
2023/08/05 05:25:25;;;;;;;7.60;5.22;;;18.20;87.60;;;;;;5060825;28;20075;-95
2023/08/05 05:27:51;;;;;;;7.93;4.28;;;18.20;87.60;;;;;;5062693;28;20046;-96
2023/08/05 05:30:27;;;;;;;7.03;4.28;;;18.20;87.80;;;;;;5062532;28;20517;-95
2023/08/05 05:33:01;;;;;;;7.50;4.47;;;18.10;88.00;;;;;;5061488;28;20126;-96
2023/08/05 05:35:28;;;;;;;7.00;4.50;;;18.10;88.00;;;;;;5061640;28;20044;-95
2023/08/05 05:38:30;;;;;;;5.72;4.40;;;18.20;88.00;;;;;;5061761;28;20047;-96
2023/08/05 05:41:19;;;;;;;8.65;4.40;;;18.00;88.30;;;;;;5061983;28;20043;-95
2023/08/05 05:43:45;;;;;;;6.20;3.83;;;18.10;88.30;;;;;;5062525;28;20044;-95
2023/08/05 05:46:14;;;;;;;5.30;4.00;;;18.30;87.90;;;;;;5062826;28;20057;-95
2023/08/05 05:48:44;;;;;;;7.57;3.78;;;18.40;87.90;;;;;;5062657;28;20097;-96
2023/08/05 05:51:10;;;;;;;6.18;3.38;;;18.50;87.70;;;;;;5062163;28;20051;-96
2023/08/05 05:53:43;;;;;;;5.57;3.55;;;18.70;87.50;;;;;;5064464;28;20076;-95
2023/08/05 05:56:12;;;;;;;3.83;3.30;;;18.70;87.40;;;;;;5062679;28;20086;-95
2023/08/05 05:59:31;;;;;;;4.55;3.50;;;18.90;87.20;;;;;;5065130;28;20405;-96
2023/08/05 06:01:56;;;;;;;4.65;3.55;;;18.90;87.20;;;;;;5063051;28;20058;-94
2023/08/05 06:04:24;;;;;;;5.95;3.53;;;19.20;86.60;;;;;;5064778;28;20043;-96
2023/08/05 06:06:51;;;;;;;5.47;3.88;;;19.20;86.60;;;;;;5059209;28;20505;-96
2023/08/05 06:09:34;;;;;;;4.75;3.65;;;19.20;86.60;;;;;;5059628;28;20048;-95
2023/08/05 06:12:09;;;;;;;5.28;3.28;;;19.20;87.00;;;;;;5056984;28;20102;-96
2023/08/05 06:14:44;;;;;;;6.60;3.78;;;19.20;86.80;;;;;;5058064;28;20044;-96
2023/08/05 06:17:44;;;;;;;6.50;3.42;;;19.30;87.10;;;;;;5057049;28;20044;-94
2023/08/05 06:20:11;;;;;;;5.32;3.17;;;19.30;87.20;;;;;;5058591;28;20135;-95
2023/08/05 06:22:36;;;;;;;5.50;3.50;;;19.60;86.60;;;;;;5058907;28;20059;-95
2023/08/05 06:25:02;;;;;;;4.07;3.05;;;19.70;86.30;;;;;;5063514;28;20056;-94
2023/08/05 06:27:30;;;;;;;6.43;3.42;;;19.90;85.90;;;;;;5060537;28;20076;-96
2023/08/05 06:30:00;;;;;;;5.53;3.50;;;19.90;85.30;;;;;;5057336;28;20185;-96
2023/08/05 06:32:31;;;;;;;5.45;3.10;;;20.00;85.20;;;;;;5053678;28;20048;-96
2023/08/05 06:35:05;;;;;;;3.97;2.90;;;20.20;85.20;;;;;;5067193;28;20041;-96
2023/08/05 06:38:06;;;;;;;7.20;2.90;;;20.30;84.60;;;;;;5077364;28;20056;-95
2023/08/05 06:40:51;;;;;;;5.60;3.10;;;20.50;84.20;;;;;;5067873;28;20091;-95
2023/08/05 06:43:42;;;;;;;8.57;3.67;;;20.50;84.10;;;;;;5057213;28;20044;-96
2023/08/05 06:46:35;;;;;;;4.75;3.05;;;20.40;84.00;;;;;;5067882;28;20048;-96
2023/08/05 06:49:10;;;;;;;4.25;3.30;;;20.40;84.00;;;;;;5057231;28;20064;-96
2023/08/05 06:51:39;;;;;;;4.90;2.83;;;20.50;83.60;;;;;;5059328;28;20553;-96
2023/08/05 06:54:10;;;;;;;7.18;2.92;;;20.60;83.40;;;;;;5061372;28;20048;-96
2023/08/05 06:56:45;;;;;;;5.47;2.95;;;20.60;83.40;;;;;;5079333;28;20074;-96
2023/08/05 06:59:26;;;;;;;4.93;2.88;;;20.70;83.10;;;;;;5077011;28;20189;-96
2023/08/05 07:01:53;;;;;;;7.07;2.90;;;21.00;82.30;;;;;;5067296;28;20494;-96
2023/08/05 07:04:20;;;;;;;4.50;2.90;;;21.20;81.80;;;;;;5067062;28;20422;-96
2023/08/05 07:06:54;;;;;;;5.70;2.70;;;21.30;82.20;;;;;;5071246;28;20031;-96
2023/08/05 07:09:22;;;;;;;6.07;2.92;;;21.30;81.20;;;;;;5066929;28;20044;-95
2023/08/05 07:12:01;;;;;;;4.95;3.00;;;21.30;81.40;;;;;;5062045;28;20052;-96
2023/08/05 07:14:31;;;;;;;6.07;2.92;;;21.20;81.90;;;;;;5068239;28;20044;-95
2023/08/05 07:16:57;;;;;;;4.32;3.22;;;21.30;81.90;;;;;;5063692;28;20158;-96
2023/08/05 07:19:37;;;;;;;4.78;3.00;;;21.30;82.00;;;;;;5063363;28;20070;-96
2023/08/05 07:22:03;;;;;;;5.47;2.90;;;21.30;81.60;;;;;;5068155;28;20083;-96
2023/08/05 07:28:11;;;;;;;4.05;2.70;;;21.20;81.50;;;;;;5173496;22;20071;-95
2023/08/05 07:30:37;;;;;;;6.10;3.00;;;21.30;81.20;;;;;;5055029;28;20135;-96
2023/08/05 07:33:08;;;;;;;3.63;3.10;;;21.30;80.80;;;;;;5043663;28;20040;-94
2023/08/05 07:35:33;;;;;;;4.35;2.95;;;21.30;81.00;;;;;;5050118;28;20094;-95
2023/08/05 07:38:04;;;;;;;4.90;2.65;;;21.40;80.80;;;;;;5048264;28;20044;-96
2023/08/05 07:40:38;;;;;;;6.63;3.45;;;21.40;80.70;;;;;;5051242;28;20032;-96
2023/08/05 07:43:23;;;;;;;3.85;2.72;;;21.30;80.60;;;;;;5047145;28;20113;-96
2023/08/05 07:46:13;;;;;;;5.53;3.00;;;21.30;80.70;;;;;;5050370;28;20064;-96
2023/08/05 07:48:40;;;;;;;6.18;3.20;;;21.30;81.00;;;;;;5055060;28;20044;-96
2023/08/05 07:51:06;;;;;;;4.85;3.08;;;21.40;80.60;;;;;;5053601;28;20060;-96
2023/08/05 07:54:09;;;;;;;4.20;3.13;;;21.30;80.40;;;;;;5052744;28;20044;-96
2023/08/05 07:56:37;;;;;;;4.30;2.83;;;21.10;80.90;;;;;;5049958;28;20052;-95
2023/08/05 07:59:20;;;;;;;4.93;2.80;;;21.30;80.50;;;;;;5056493;28;20083;-95
2023/08/05 08:02:21;;;;;;;5.07;3.20;;;21.10;80.80;;;;;;5067712;28;20048;-96
2023/08/05 08:04:49;;;;;;;5.57;3.33;;;21.30;80.80;;;;;;5047058;28;20055;-96
2023/08/05 08:07:18;;;;;;;5.38;3.13;;;21.30;80.60;;;;;;5051336;28;20072;-95
2023/08/05 08:10:04;;;;;;;5.65;3.22;;;21.30;80.40;;;;;;5050850;28;20044;-96
2023/08/05 08:12:33;;;;;;;4.63;2.83;;;21.40;80.70;;;;;;5049451;28;20033;-96
2023/08/05 08:15:14;;;;;;;4.72;3.22;;;21.60;80.50;;;;;;5040503;28;20048;-96
2023/08/05 08:17:56;;;;;;;6.28;2.80;;;21.60;80.90;;;;;;5045450;28;20064;-96
2023/08/05 08:20:25;;;;;;;5.55;2.80;;;21.90;80.40;;;;;;5049009;28;20112;-96
2023/08/05 08:22:51;;;;;;;3.72;2.67;;;22.00;79.60;;;;;;5053408;28;20071;-96
2023/08/05 08:25:25;;;;;;;7.82;3.10;;;22.10;79.20;;;;;;5051196;28;20032;-96
2023/08/05 08:27:58;;;;;;;6.13;2.85;;;22.10;78.80;;;;;;5049949;28;20106;-96
2023/08/05 08:30:29;;;;;;;3.28;2.67;;;22.10;78.30;;;;;;5053094;28;20030;-96
2023/08/05 08:33:00;;;;;;;5.65;3.00;;;22.10;78.30;;;;;;5052495;28;20477;-96
2023/08/05 08:36:04;;;;;;;4.20;2.65;;;22.10;77.80;;;;;;5055622;28;20047;-96
2023/08/05 08:39:07;;;;;;;6.55;2.88;;;22.00;78.40;;;;;;5051476;28;20056;-96
2023/08/05 08:41:43;;;;;;;4.00;2.80;;;22.00;78.10;;;;;;5048482;28;20054;-93
2023/08/05 08:44:12;;;;;;;5.85;2.90;;;22.10;77.90;;;;;;5050650;28;20091;-95
2023/08/05 08:46:38;;;;;;;6.63;2.38;;;22.20;77.70;;;;;;5056518;28;20020;-95
2023/08/05 08:49:27;;;;;;;2.80;2.30;;;22.30;77.60;;;;;;5054194;28;20508;-96
2023/08/05 08:55:26;;;;;;;5.18;2.70;;;22.40;77.20;;;;;;5682153;22;20060;-96
2023/08/05 08:58:02;;;;;;;;;;;;;;;;;;;;;
2023/08/05 09:00:58;;;;;;;3.70;3.13;;;22.60;77.10;;;;;;5619250;22;20084;-96
2023/08/05 09:03:33;;;;;;;6.70;2.50;;;22.90;76.90;;;;;;5194254;22;20079;-94
2023/08/05 09:06:12;;;;;;;5.07;3.55;;;23.20;76.00;;;;;;5069091;28;20056;-96
2023/08/05 13:20:04;;;;;;;9.18;8.38;;;21.60;86.20;;;;;;5154363;27;20445;-90
2023/08/05 13:22:29;;;;;;;10.40;9.35;;;22.10;85.40;;;;;;5123810;27;20050;-90
2023/08/05 13:24:59;;;;;;;13.25;9.40;;;22.80;83.40;;;;;;5125619;27;20495;-92
2023/08/05 13:27:25;;;;;;;11.20;9.68;;;23.40;81.40;;;;;;5119338;27;20068;-94
2023/08/05 13:29:51;;;;;;;10.38;9.15;;;23.90;80.00;;;;;;5119158;27;20488;-94
2023/08/05 13:32:16;;;;;;;9.65;8.50;;;24.20;78.90;;;;;;5117622;27;20050;-90
2023/08/05 13:34:45;;;;;;;10.05;9.07;;;24.30;77.90;;;;;;5119755;27;21195;-94
2023/08/05 13:37:43;;;;;;;10.27;8.60;;;24.40;77.80;;;;;;5120593;27;20038;-96
2023/08/05 13:40:12;;;;;;;10.35;9.35;;;24.50;77.50;;;;;;5130740;27;20055;-96
2023/08/05 13:42:48;;;;;;;9.45;8.65;;;24.60;77.00;;;;;;5117821;27;20039;-93
2023/08/05 13:45:13;;;;;;;8.65;7.75;;;24.60;77.30;;;;;;5119612;27;20037;-91
2023/08/05 13:47:58;;;;;;;8.77;7.88;;;24.70;76.70;;;;;;5118999;27;20039;-95
2023/08/05 13:51:10;;;;;;;9.70;8.68;;;24.50;76.10;;;;;;5117489;27;20176;-94
2023/08/05 13:53:37;;;;;;;10.15;8.43;;;24.50;76.60;;;;;;5134173;27;20088;-92
2023/08/05 13:56:10;;;;;;;12.85;9.32;;;24.60;76.30;;;;;;5117679;27;20046;-93
2023/08/05 13:58:57;;;;;;;10.68;8.85;;;24.50;75.70;;;;;;5117496;27;20046;-93
2023/08/05 14:01:42;;;;;;;9.77;8.60;;;24.50;76.10;;;;;;5117083;27;20043;-95
2023/08/05 14:06:44;;;;;;;11.32;9.40;;;24.70;76.20;;;;;;5049751;28;20053;-93
2023/08/05 14:09:10;;;;;;;11.15;10.05;;;24.70;76.40;;;;;;5016528;28;20178;-90
2023/08/05 14:11:36;;;;;;;12.07;10.85;;;24.60;76.30;;;;;;5016184;28;20048;-91
2023/08/05 14:14:02;;;;;;;11.90;10.68;;;24.60;76.70;;;;;;5033362;28;20045;-93
2023/08/05 14:16:27;;;;;;;12.80;11.55;;;24.70;76.80;;;;;;5017702;28;20045;-92
2023/08/05 14:19:00;;;;;;;12.57;11.38;;;24.70;76.20;;;;;;5016447;28;20045;-95
2023/08/05 14:21:28;;;;;;;13.98;11.35;;;24.60;76.10;;;;;;5016959;28;20041;-92
2023/08/05 14:23:57;;;;;;;12.13;10.93;;;24.60;75.80;;;;;;5033568;28;20067;-95
2023/08/05 14:26:33;;;;;;;12.57;11.27;;;24.70;76.00;;;;;;5018481;28;20049;-94
2023/08/05 14:29:24;;;;;;;12.07;10.95;;;24.70;75.90;;;;;;5017155;28;20037;-92
2023/08/05 14:32:01;;;;;;;12.20;11.00;;;24.60;75.90;;;;;;5003208;28;20045;-93
2023/08/05 14:34:30;;;;;;;11.32;10.13;;;24.70;75.60;;;;;;5003992;28;20041;-94
2023/08/05 14:37:00;;;;;;;11.57;10.40;;;24.70;75.70;;;;;;5002891;28;20047;-94
2023/08/05 14:39:28;;;;;;;11.90;10.63;;;24.60;75.80;;;;;;5003048;28;20050;-94
2023/08/05 14:41:54;;;;;;;10.95;9.48;;;24.60;75.90;;;;;;5003403;28;20045;-90
2023/08/05 14:44:23;;;;;;;9.98;8.80;;;24.60;75.90;;;;;;5003463;28;20108;-95
2023/08/05 14:47:00;;;;;;;10.20;9.30;;;24.50;75.90;;;;;;5002979;28;20620;-94
2023/08/05 14:49:26;;;;;;;9.23;8.43;;;24.40;76.70;;;;;;5002262;28;20511;-96
2023/08/05 14:51:51;;;;;;;9.18;8.23;;;24.50;76.60;;;;;;5002648;28;20049;-95
2023/08/05 14:54:17;;;;;;;9.60;8.57;;;24.50;76.50;;;;;;5005861;28;20064;-95
2023/08/05 14:56:54;;;;;;;8.90;8.10;;;24.40;76.50;;;;;;5004246;28;20041;-95
2023/08/05 14:59:25;;;;;;;3.70;2.28;;;24.20;76.60;;;;;;5004918;28;20069;-95
